createdAt,value
2023-05-01T00:00:56.918Z,22.00
2023-05-01T00:01:56.951Z,22.00
2023-05-01T00:02:57.045Z,21.99
2023-05-01T00:03:57.192Z,22.00
2023-05-01T00:04:57.070Z,21.99
2023-05-01T00:05:57.012Z,22.00
2023-05-01T00:06:56.996Z,22.00
2023-05-01T00:07:57.004Z,22.00
2023-05-01T00:08:56.984Z,22.00
2023-05-01T00:09:57.328Z,22.00
2023-05-01T00:10:57.008Z,22.00
2023-05-01T00:11:57.068Z,22.00
2023-05-01T00:12:57.041Z,21.99
2023-05-01T00:13:57.053Z,21.99
2023-05-01T00:14:57.053Z,21.99
2023-05-01T00:15:57.105Z,21.99
2023-05-01T00:16:57.193Z,21.99
2023-05-01T00:17:57.239Z,22.00
2023-05-01T00:18:57.137Z,21.99
2023-05-01T00:19:57.544Z,21.99
2023-05-01T00:20:57.187Z,21.98
2023-05-01T00:21:57.159Z,21.98
2023-05-01T00:22:57.173Z,21.98
2023-05-01T00:23:57.140Z,21.98
2023-05-01T00:24:57.226Z,21.98
2023-05-01T00:25:57.158Z,21.99
2023-05-01T00:26:57.153Z,21.99
2023-05-01T00:27:57.168Z,21.99
2023-05-01T00:28:57.210Z,21.98
2023-05-01T00:29:57.465Z,21.98
2023-05-01T00:30:57.188Z,21.98
2023-05-01T00:31:57.239Z,21.98
2023-05-01T00:32:57.259Z,21.98
2023-05-01T00:33:57.207Z,21.98
2023-05-01T00:34:57.216Z,21.98
2023-05-01T00:35:57.211Z,21.98
2023-05-01T00:36:57.682Z,21.98
2023-05-01T00:37:57.229Z,21.98
2023-05-01T00:38:57.253Z,21.98
2023-05-01T00:39:57.600Z,21.98
2023-05-01T00:40:57.270Z,21.98
2023-05-01T00:41:57.253Z,21.97
2023-05-01T00:42:57.244Z,21.98
2023-05-01T00:43:57.276Z,21.97
2023-05-01T00:44:57.230Z,21.97
2023-05-01T00:45:57.257Z,21.97
2023-05-01T00:46:57.275Z,21.97
2023-05-01T00:47:57.254Z,21.96
2023-05-01T00:48:57.278Z,21.97
2023-05-01T00:49:57.489Z,21.96
2023-05-01T00:50:57.225Z,21.96
2023-05-01T00:51:57.224Z,21.97
2023-05-01T00:52:57.222Z,21.96
2023-05-01T00:53:57.243Z,21.96
2023-05-01T00:54:57.258Z,21.96
2023-05-01T00:55:57.253Z,21.96
2023-05-01T00:56:57.236Z,21.96
2023-05-01T00:57:57.224Z,21.96
2023-05-01T00:58:57.242Z,21.96
2023-05-01T00:59:57.475Z,21.96
2023-05-01T01:00:57.322Z,21.96
2023-05-01T01:01:57.301Z,21.96
2023-05-01T01:02:57.292Z,21.96
2023-05-01T01:03:57.350Z,21.96
2023-05-01T01:04:57.357Z,21.95
2023-05-01T01:05:57.345Z,21.95
2023-05-01T01:06:57.290Z,21.95
2023-05-01T01:07:57.301Z,21.95
2023-05-01T01:08:57.268Z,21.95
2023-05-01T01:09:57.542Z,21.95
2023-05-01T01:10:57.719Z,21.96
2023-05-01T01:11:57.283Z,21.96
2023-05-01T01:12:57.297Z,21.95
2023-05-01T01:13:57.319Z,21.95
2023-05-01T01:14:57.350Z,21.95
2023-05-01T01:15:57.366Z,21.95
2023-05-01T01:16:57.445Z,21.96
2023-05-01T01:17:57.451Z,21.95
2023-05-01T01:18:57.362Z,21.96
2023-05-01T01:19:57.658Z,21.95
2023-05-01T01:20:57.385Z,21.95
2023-05-01T01:21:57.396Z,21.94
2023-05-01T01:22:57.392Z,21.93
2023-05-01T01:23:57.393Z,21.93
2023-05-01T01:24:57.440Z,21.94
2023-05-01T01:25:57.436Z,21.94
2023-05-01T01:26:57.404Z,21.94
2023-05-01T01:27:57.415Z,21.93
2023-05-01T01:28:57.438Z,21.93
2023-05-01T01:29:57.700Z,21.92
2023-05-01T01:30:57.459Z,21.93
2023-05-01T01:31:57.437Z,21.93
2023-05-01T01:32:57.430Z,21.93
2023-05-01T01:33:57.435Z,21.93
2023-05-01T01:34:57.402Z,21.94
2023-05-01T01:35:57.428Z,21.93
2023-05-01T01:36:57.436Z,21.93
2023-05-01T01:37:57.507Z,21.93
2023-05-01T01:38:57.418Z,21.93
2023-05-01T01:39:57.652Z,21.93
2023-05-01T01:40:57.440Z,21.93
2023-05-01T01:41:57.421Z,21.93
2023-05-01T01:42:57.407Z,21.93
2023-05-01T01:43:57.397Z,21.93
2023-05-01T01:44:57.398Z,21.92
2023-05-01T01:45:57.439Z,21.93
2023-05-01T01:46:57.403Z,21.92
2023-05-01T01:47:57.468Z,21.92
2023-05-01T01:48:57.414Z,21.92
2023-05-01T01:49:57.553Z,21.93
2023-05-01T01:50:57.444Z,21.92
2023-05-01T01:51:57.417Z,21.91
2023-05-01T01:52:57.418Z,21.93
2023-05-01T01:53:57.400Z,21.92
2023-05-01T01:54:57.390Z,21.92
2023-05-01T01:55:57.458Z,21.91
2023-05-01T01:56:57.405Z,21.92
2023-05-01T01:57:57.418Z,21.92
2023-05-01T01:58:57.393Z,21.92
2023-05-01T01:59:57.677Z,21.91
2023-05-01T02:00:57.413Z,21.92
2023-05-01T02:01:57.542Z,21.91
2023-05-01T02:02:57.522Z,21.91
2023-05-01T02:03:57.465Z,21.91
2023-05-01T02:04:57.466Z,21.91
2023-05-01T02:05:57.472Z,21.91
2023-05-01T02:06:57.477Z,21.91
2023-05-01T02:07:57.444Z,21.91
2023-05-01T02:08:57.451Z,21.90
2023-05-01T02:09:57.639Z,21.91
2023-05-01T02:10:58.801Z,21.91
2023-05-01T02:11:57.504Z,21.90
2023-05-01T02:12:57.451Z,21.90
2023-05-01T02:13:57.426Z,21.91
2023-05-01T02:14:57.458Z,21.90
2023-05-01T02:15:57.450Z,21.91
2023-05-01T02:16:57.474Z,21.91
2023-05-01T02:17:57.501Z,21.90
2023-05-01T02:18:57.452Z,21.90
2023-05-01T02:19:57.642Z,21.90
2023-05-01T02:20:57.428Z,21.90
2023-05-01T02:21:57.414Z,21.89
2023-05-01T02:22:57.414Z,21.89
2023-05-01T02:23:57.393Z,21.89
2023-05-01T02:24:57.460Z,21.88
2023-05-01T02:25:57.430Z,21.87
2023-05-01T02:26:57.400Z,21.88
2023-05-01T02:27:57.438Z,21.88
2023-05-01T02:28:57.371Z,21.89
2023-05-01T02:29:57.608Z,21.88
2023-05-01T02:30:57.442Z,21.88
2023-05-01T02:31:57.533Z,21.88
2023-05-01T02:32:57.500Z,21.89
2023-05-01T02:33:57.402Z,21.89
2023-05-01T02:34:57.438Z,21.88
2023-05-01T02:35:57.561Z,21.88
2023-05-01T02:36:57.430Z,21.88
2023-05-01T02:37:57.403Z,21.88
2023-05-01T02:38:57.408Z,21.88
2023-05-01T02:39:57.514Z,21.87
2023-05-01T02:40:57.438Z,21.87
2023-05-01T02:41:57.440Z,21.87
2023-05-01T02:42:57.443Z,21.87
2023-05-01T02:43:57.423Z,21.87
2023-05-01T02:44:57.443Z,21.87
2023-05-01T02:45:57.546Z,21.87
2023-05-01T02:46:57.465Z,21.87
2023-05-01T02:47:57.482Z,21.87
2023-05-01T02:48:57.432Z,21.87
2023-05-01T02:49:57.623Z,21.87
2023-05-01T02:50:57.476Z,21.87
2023-05-01T02:51:57.444Z,21.88
2023-05-01T02:52:57.414Z,21.87
2023-05-01T02:53:57.422Z,21.88
2023-05-01T02:54:57.416Z,21.87
2023-05-01T02:55:57.445Z,21.86
2023-05-01T02:56:57.433Z,21.87
2023-05-01T02:57:57.404Z,21.86
2023-05-01T02:58:57.413Z,21.86
2023-05-01T02:59:57.583Z,21.86
2023-05-01T03:00:57.439Z,21.86
2023-05-01T03:01:57.428Z,21.86
2023-05-01T03:02:57.485Z,21.85
2023-05-01T03:03:57.443Z,21.85
2023-05-01T03:04:57.428Z,21.85
2023-05-01T03:05:57.477Z,21.85
2023-05-01T03:06:57.421Z,21.86
2023-05-01T03:07:57.404Z,21.85
2023-05-01T03:08:57.410Z,21.85
2023-05-01T03:09:57.583Z,21.85
2023-05-01T03:10:57.438Z,21.86
2023-05-01T03:11:57.419Z,21.86
2023-05-01T03:12:57.386Z,21.85
2023-05-01T03:13:57.404Z,21.85
2023-05-01T03:14:57.408Z,21.86
2023-05-01T03:15:57.423Z,21.85
2023-05-01T03:16:57.400Z,21.85
2023-05-01T03:17:57.470Z,21.86
2023-05-01T03:18:57.395Z,21.85
2023-05-01T03:19:57.611Z,21.85
2023-05-01T03:20:57.410Z,21.85
2023-05-01T03:21:57.448Z,21.85
2023-05-01T03:22:57.402Z,21.84
2023-05-01T03:23:57.439Z,21.85
2023-05-01T03:24:57.428Z,21.84
2023-05-01T03:25:57.405Z,21.84
2023-05-01T03:26:57.441Z,21.85
2023-05-01T03:27:57.416Z,21.84
2023-05-01T03:28:57.410Z,21.85
2023-05-01T03:29:57.588Z,21.84
2023-05-01T03:30:57.412Z,21.83
2023-05-01T03:31:57.477Z,21.83
2023-05-01T03:32:57.473Z,21.83
2023-05-01T03:33:57.457Z,21.83
2023-05-01T03:34:57.481Z,21.83
2023-05-01T03:35:57.474Z,21.83
2023-05-01T03:36:57.507Z,21.83
2023-05-01T03:37:57.495Z,21.83
2023-05-01T03:38:57.551Z,21.83
2023-05-01T03:39:57.813Z,21.83
2023-05-01T03:40:57.509Z,21.83
2023-05-01T03:41:57.513Z,21.83
2023-05-01T03:42:57.528Z,21.82
2023-05-01T03:43:57.523Z,21.82
2023-05-01T03:44:57.583Z,21.82
2023-05-01T03:45:57.576Z,21.82
2023-05-01T03:46:57.551Z,21.82
2023-05-01T03:47:57.597Z,21.82
2023-05-01T03:48:57.548Z,21.81
2023-05-01T03:49:57.864Z,21.82
2023-05-01T03:50:57.561Z,21.82
2023-05-01T03:51:57.558Z,21.81
2023-05-01T03:52:57.582Z,21.81
2023-05-01T03:53:57.595Z,21.81
2023-05-01T03:54:57.558Z,21.81
2023-05-01T03:55:57.537Z,21.81
2023-05-01T03:56:57.570Z,21.82
2023-05-01T03:57:57.556Z,21.80
2023-05-01T03:58:57.524Z,21.81
2023-05-01T03:59:57.789Z,21.81
2023-05-01T04:00:57.562Z,21.80
2023-05-01T04:01:57.579Z,21.82
2023-05-01T04:02:57.877Z,21.80
2023-05-01T04:03:57.704Z,21.81
2023-05-01T04:04:57.535Z,21.81
2023-05-01T04:05:57.649Z,21.81
2023-05-01T04:06:57.539Z,21.81
2023-05-01T04:07:57.552Z,21.81
2023-05-01T04:08:57.553Z,21.80
2023-05-01T04:09:57.911Z,21.80
2023-05-01T04:10:57.553Z,21.80
2023-05-01T04:11:57.560Z,21.80
2023-05-01T04:12:57.515Z,21.80
2023-05-01T04:13:57.584Z,21.81
2023-05-01T04:14:57.538Z,21.80
2023-05-01T04:15:57.567Z,21.80
2023-05-01T04:16:57.544Z,21.81
2023-05-01T04:17:57.525Z,21.80
2023-05-01T04:18:57.575Z,21.81
2023-05-01T04:19:57.956Z,21.81
2023-05-01T04:20:57.525Z,21.80
2023-05-01T04:21:57.785Z,21.81
2023-05-01T04:22:57.542Z,21.81
2023-05-01T04:23:57.510Z,21.81
2023-05-01T04:24:57.546Z,21.80
2023-05-01T04:25:57.531Z,21.80
2023-05-01T04:26:57.537Z,21.80
2023-05-01T04:27:57.505Z,21.80
2023-05-01T04:28:57.533Z,21.80
2023-05-01T04:29:58.063Z,21.80
2023-05-01T04:30:57.500Z,21.79
2023-05-01T04:31:57.643Z,21.80
2023-05-01T04:32:57.575Z,21.80
2023-05-01T04:33:57.515Z,21.80
2023-05-01T04:34:57.949Z,21.80
2023-05-01T04:35:57.537Z,21.80
2023-05-01T04:36:57.519Z,21.80
2023-05-01T04:37:57.503Z,21.79
2023-05-01T04:38:57.535Z,21.79
2023-05-01T04:39:57.684Z,21.80
2023-05-01T04:40:57.505Z,21.80
2023-05-01T04:41:57.489Z,21.80
2023-05-01T04:42:57.510Z,21.80
2023-05-01T04:43:57.514Z,21.79
2023-05-01T04:44:57.511Z,21.79
2023-05-01T04:45:57.491Z,21.80
2023-05-01T04:46:57.559Z,21.80
2023-05-01T04:47:57.537Z,21.80
2023-05-01T04:48:57.498Z,21.81
2023-05-01T04:49:57.870Z,21.80
2023-05-01T04:50:57.497Z,21.81
2023-05-01T04:51:57.490Z,21.81
2023-05-01T04:52:57.486Z,21.81
2023-05-01T04:53:57.482Z,21.81
2023-05-01T04:54:57.481Z,21.80
2023-05-01T04:55:57.452Z,21.80
2023-05-01T04:56:57.489Z,21.81
2023-05-01T04:57:57.440Z,21.81
2023-05-01T04:58:57.466Z,21.81
2023-05-01T04:59:57.894Z,21.81
2023-05-01T05:00:57.460Z,21.80
2023-05-01T05:01:57.558Z,21.81
2023-05-01T05:02:58.400Z,21.81
2023-05-01T05:03:57.562Z,21.81
2023-05-01T05:04:57.440Z,21.81
2023-05-01T05:05:57.522Z,21.82
2023-05-01T05:06:57.791Z,21.81
2023-05-01T05:07:57.473Z,21.80
2023-05-01T05:08:57.478Z,21.80
2023-05-01T05:09:57.715Z,21.81
2023-05-01T05:10:57.442Z,21.81
2023-05-01T05:11:57.433Z,21.81
2023-05-01T05:12:57.460Z,21.81
2023-05-01T05:13:57.449Z,21.81
2023-05-01T05:14:57.440Z,21.82
2023-05-01T05:15:57.504Z,21.82
2023-05-01T05:16:57.590Z,21.82
2023-05-01T05:17:57.487Z,21.81
2023-05-01T05:18:57.429Z,21.82
2023-05-01T05:19:57.582Z,21.82
2023-05-01T05:20:57.440Z,21.81
2023-05-01T05:21:57.422Z,21.81
2023-05-01T05:22:57.453Z,21.81
2023-05-01T05:23:57.453Z,21.81
2023-05-01T05:24:57.414Z,21.80
2023-05-01T05:25:57.416Z,21.81
2023-05-01T05:26:57.424Z,21.82
2023-05-01T05:27:57.429Z,21.81
2023-05-01T05:28:57.436Z,21.82
2023-05-01T05:29:57.625Z,21.81
2023-05-01T05:30:57.391Z,21.82
2023-05-01T05:31:57.482Z,21.82
2023-05-01T05:32:57.422Z,21.82
2023-05-01T05:33:57.395Z,21.82
2023-05-01T05:34:57.387Z,21.81
2023-05-01T05:35:57.400Z,21.82
2023-05-01T05:36:57.402Z,21.82
2023-05-01T05:37:57.403Z,21.82
2023-05-01T05:38:57.391Z,21.82
2023-05-01T05:39:57.620Z,21.83
2023-05-01T05:40:57.374Z,21.82
2023-05-01T05:41:57.395Z,21.83
2023-05-01T05:42:57.396Z,21.83
2023-05-01T05:43:57.377Z,21.82
2023-05-01T05:44:57.411Z,21.83
2023-05-01T05:45:57.465Z,21.82
2023-05-01T05:46:57.393Z,21.83
2023-05-01T05:47:57.496Z,21.83
2023-05-01T05:48:57.373Z,21.83
2023-05-01T05:49:57.600Z,21.83
2023-05-01T05:50:57.340Z,21.83
2023-05-01T05:51:57.360Z,21.84
2023-05-01T05:52:57.324Z,21.83
2023-05-01T05:53:57.341Z,21.83
2023-05-01T05:54:57.345Z,21.83
2023-05-01T05:55:57.367Z,21.84
2023-05-01T05:56:57.348Z,21.84
2023-05-01T05:57:57.331Z,21.83
2023-05-01T05:58:57.325Z,21.84
2023-05-01T05:59:57.964Z,21.84
2023-05-01T06:00:57.338Z,21.84
2023-05-01T06:01:57.518Z,21.84
2023-05-01T06:02:57.400Z,21.84
2023-05-01T06:03:57.347Z,21.84
2023-05-01T06:04:57.337Z,21.85
2023-05-01T06:05:57.408Z,21.85
2023-05-01T06:06:57.456Z,21.85
2023-05-01T06:07:57.378Z,21.86
2023-05-01T06:08:57.351Z,21.85
2023-05-01T06:09:57.479Z,21.85
2023-05-01T06:10:57.325Z,21.86
2023-05-01T06:11:57.341Z,21.86
2023-05-01T06:13:04.415Z,21.86
2023-05-01T06:13:58.377Z,21.86
2023-05-01T06:14:57.327Z,21.86
2023-05-01T06:15:57.388Z,21.86
2023-05-01T06:16:57.290Z,21.87
2023-05-01T06:17:57.335Z,21.87
2023-05-01T06:18:57.274Z,21.87
2023-05-01T06:19:57.520Z,21.87
2023-05-01T06:20:57.272Z,21.88
2023-05-01T06:21:57.326Z,21.87
2023-05-01T06:22:57.244Z,21.88
2023-05-01T06:23:57.261Z,21.87
2023-05-01T06:24:57.234Z,21.88
2023-05-01T06:25:57.248Z,21.88
2023-05-01T06:26:57.440Z,21.89
2023-05-01T06:27:57.195Z,21.88
2023-05-01T06:28:57.186Z,21.89
2023-05-01T06:29:57.359Z,21.89
2023-05-01T06:30:57.231Z,21.89
2023-05-01T06:31:57.206Z,21.89
2023-05-01T06:32:57.228Z,21.89
2023-05-01T06:33:57.164Z,21.89
2023-05-01T06:34:57.154Z,21.89
2023-05-01T06:35:57.135Z,21.89
2023-05-01T06:36:57.174Z,21.89
2023-05-01T06:37:57.148Z,21.90
2023-05-01T06:38:57.122Z,21.89
2023-05-01T06:39:57.311Z,21.89
2023-05-01T06:40:57.115Z,21.90
2023-05-01T06:41:57.135Z,21.89
2023-05-01T06:42:57.099Z,21.89
2023-05-01T06:43:57.079Z,21.90
2023-05-01T06:44:57.077Z,21.89
2023-05-01T06:45:57.078Z,21.90
2023-05-01T06:46:57.123Z,21.90
2023-05-01T06:47:57.163Z,21.90
2023-05-01T06:48:57.062Z,21.91
2023-05-01T06:49:57.446Z,21.90
2023-05-01T06:50:57.103Z,21.91
2023-05-01T06:51:57.129Z,21.90
2023-05-01T06:52:57.185Z,21.91
2023-05-01T06:53:57.220Z,21.91
2023-05-01T06:54:57.215Z,21.91
2023-05-01T06:55:57.224Z,21.92
2023-05-01T06:56:57.267Z,21.91
2023-05-01T06:57:57.229Z,21.91
2023-05-01T06:58:57.225Z,21.92
2023-05-01T06:59:57.533Z,21.92
2023-05-01T07:00:57.275Z,21.92
2023-05-01T07:01:57.262Z,21.93
2023-05-01T07:02:57.363Z,21.92
2023-05-01T07:03:57.216Z,21.92
2023-05-01T07:04:57.218Z,21.93
2023-05-01T07:05:57.286Z,21.92
2023-05-01T07:06:57.231Z,21.93
2023-05-01T07:08:01.479Z,21.93
2023-05-01T07:08:57.226Z,21.93
2023-05-01T07:09:57.344Z,21.93
2023-05-01T07:10:57.207Z,21.93
2023-05-01T07:11:57.188Z,21.94
2023-05-01T07:12:57.178Z,21.94
2023-05-01T07:13:57.172Z,21.94
2023-05-01T07:14:58.168Z,21.93
2023-05-01T07:15:57.241Z,21.94
2023-05-01T07:16:57.268Z,21.94
2023-05-01T07:17:57.155Z,21.94
2023-05-01T07:18:57.134Z,21.94
2023-05-01T07:19:57.327Z,21.94
2023-05-01T07:20:57.130Z,21.95
2023-05-01T07:21:57.172Z,21.94
2023-05-01T07:22:57.137Z,21.94
2023-05-01T07:23:57.164Z,21.94
2023-05-01T07:24:57.084Z,21.95
2023-05-01T07:25:57.078Z,21.94
2023-05-01T07:26:57.089Z,21.94
2023-05-01T07:27:57.096Z,21.94
2023-05-01T07:28:57.062Z,21.94
2023-05-01T07:29:57.578Z,21.94
2023-05-01T07:30:57.068Z,21.95
2023-05-01T07:31:57.117Z,21.95
2023-05-01T07:32:57.379Z,21.95
2023-05-01T07:33:57.076Z,21.95
2023-05-01T07:34:57.004Z,21.94
2023-05-01T07:35:57.009Z,21.95
2023-05-01T07:36:57.093Z,21.95
2023-05-01T07:37:57.039Z,21.95
2023-05-01T07:38:56.965Z,21.95
2023-05-01T07:39:57.250Z,21.95
2023-05-01T07:40:56.979Z,21.96
2023-05-01T07:41:56.977Z,21.96
2023-05-01T07:42:57.344Z,21.96
2023-05-01T07:43:56.961Z,21.97
2023-05-01T07:44:56.942Z,21.97
2023-05-01T07:45:56.969Z,21.97
2023-05-01T07:46:56.954Z,21.97
2023-05-01T07:47:57.012Z,21.97
2023-05-01T07:48:56.911Z,21.98
2023-05-01T07:49:57.065Z,21.99
2023-05-01T07:50:56.893Z,21.98
2023-05-01T07:51:56.889Z,21.99
2023-05-01T07:52:56.885Z,22.00
2023-05-01T07:53:56.916Z,22.00
2023-05-01T07:54:56.856Z,22.00
2023-05-01T07:55:56.862Z,22.00
2023-05-01T07:56:56.853Z,22.01
2023-05-01T07:57:56.919Z,22.01
2023-05-01T07:58:56.830Z,22.02
2023-05-01T07:59:57.073Z,22.03
2023-05-01T08:00:56.835Z,22.03
2023-05-01T08:01:56.881Z,22.03
2023-05-01T08:02:56.895Z,22.04
2023-05-01T08:03:57.017Z,22.04
2023-05-01T08:04:56.848Z,22.05
2023-05-01T08:05:56.818Z,22.05
2023-05-01T08:06:56.863Z,22.06
2023-05-01T08:07:56.788Z,22.06
2023-05-01T08:08:56.760Z,22.06
2023-05-01T08:09:59.842Z,22.07
2023-05-01T08:10:56.762Z,22.07
2023-05-01T08:11:56.740Z,22.08
2023-05-01T08:12:56.742Z,22.08
2023-05-01T08:13:56.717Z,22.08
2023-05-01T08:14:56.723Z,22.09
2023-05-01T08:15:56.756Z,22.09
2023-05-01T08:16:56.709Z,22.10
2023-05-01T08:17:56.762Z,22.10
2023-05-01T08:18:56.715Z,22.10
2023-05-01T08:19:57.082Z,22.11
2023-05-01T08:20:56.678Z,22.11
2023-05-01T08:21:56.670Z,22.13
2023-05-01T08:22:56.690Z,22.13
2023-05-01T08:23:56.685Z,22.12
2023-05-01T08:24:56.687Z,22.14
2023-05-01T08:25:56.626Z,22.14
2023-05-01T08:26:56.661Z,22.15
2023-05-01T08:27:56.634Z,22.16
2023-05-01T08:28:56.615Z,22.15
2023-05-01T08:29:56.947Z,22.16
2023-05-01T08:30:56.755Z,22.16
2023-05-01T08:31:56.709Z,22.17
2023-05-01T08:32:56.630Z,22.18
2023-05-01T08:33:56.645Z,22.18
2023-05-01T08:34:56.574Z,22.18
2023-05-01T08:35:56.574Z,22.18
2023-05-01T08:36:56.590Z,22.19
2023-05-01T08:37:56.544Z,22.20
2023-05-01T08:38:56.653Z,22.21
2023-05-01T08:39:56.757Z,22.21
2023-05-01T08:40:56.547Z,22.22
2023-05-01T08:41:56.555Z,22.22
2023-05-01T08:42:56.870Z,22.23
2023-05-01T08:43:56.500Z,22.24
2023-05-01T08:44:56.496Z,22.24
2023-05-01T08:45:56.490Z,22.25
2023-05-01T08:46:56.496Z,22.25
2023-05-01T08:47:56.568Z,22.26
2023-05-01T08:48:56.496Z,22.27
2023-05-01T08:49:56.792Z,22.28
2023-05-01T08:50:56.718Z,22.29
2023-05-01T08:51:56.648Z,22.29
2023-05-01T08:52:56.738Z,22.30
2023-05-01T08:53:56.783Z,22.30
2023-05-01T08:54:56.824Z,22.31
2023-05-01T08:55:56.878Z,22.31
2023-05-01T08:56:56.957Z,22.33
2023-05-01T08:57:57.085Z,22.33
2023-05-01T08:58:57.181Z,22.34
2023-05-01T08:59:57.327Z,22.34
2023-05-01T09:00:57.181Z,22.35
2023-05-01T09:01:57.284Z,22.36
2023-05-01T09:02:57.338Z,22.37
2023-05-01T09:03:57.432Z,22.38
2023-05-01T09:04:57.403Z,22.39
2023-05-01T09:05:57.509Z,22.39
2023-05-01T09:06:57.538Z,22.40
2023-05-01T09:07:57.652Z,22.41
2023-05-01T09:08:57.644Z,22.41
2023-05-01T09:09:57.900Z,22.42
2023-05-01T09:10:57.732Z,22.41
2023-05-01T09:11:57.792Z,22.42
2023-05-01T09:12:57.816Z,22.42
2023-05-01T09:13:57.918Z,22.43
2023-05-01T09:14:57.959Z,22.41
2023-05-01T09:15:58.039Z,22.42
2023-05-01T09:16:58.123Z,22.42
2023-05-01T09:17:59.188Z,22.42
2023-05-01T09:18:58.072Z,22.42
2023-05-01T09:19:58.394Z,22.42
2023-05-01T09:20:58.067Z,22.43
2023-05-01T09:21:58.067Z,22.43
2023-05-01T09:22:58.044Z,22.43
2023-05-01T09:23:58.074Z,22.43
2023-05-01T09:24:58.043Z,22.43
2023-05-01T09:25:58.051Z,22.44
2023-05-01T09:26:58.060Z,22.43
2023-05-01T09:27:58.051Z,22.43
2023-05-01T09:28:58.058Z,22.43
2023-05-01T09:29:58.287Z,22.43
2023-05-01T09:30:57.991Z,22.44
2023-05-01T09:31:58.067Z,22.46
2023-05-01T09:32:58.154Z,22.45
2023-05-01T09:33:58.005Z,22.45
2023-05-01T09:34:57.960Z,22.46
2023-05-01T09:35:57.980Z,22.47
2023-05-01T09:36:57.972Z,22.47
2023-05-01T09:37:57.984Z,22.48
2023-05-01T09:38:57.947Z,22.48
2023-05-01T09:39:58.194Z,22.48
2023-05-01T09:40:57.931Z,22.48
2023-05-01T09:41:57.931Z,22.49
2023-05-01T09:42:57.934Z,22.48
2023-05-01T09:43:57.931Z,22.49
2023-05-01T09:44:57.892Z,22.50
2023-05-01T09:45:57.948Z,22.50
2023-05-01T09:46:57.896Z,22.51
2023-05-01T09:47:58.447Z,22.51
2023-05-01T09:48:57.894Z,22.51
2023-05-01T09:49:58.163Z,22.52
2023-05-01T09:50:57.850Z,22.51
2023-05-01T09:51:57.902Z,22.52
2023-05-01T09:52:57.847Z,22.52
2023-05-01T09:53:57.844Z,22.52
2023-05-01T09:54:57.864Z,22.53
2023-05-01T09:55:57.939Z,22.53
2023-05-01T09:56:57.958Z,22.54
2023-05-01T09:57:58.077Z,22.53
2023-05-01T09:58:58.055Z,22.53
2023-05-01T09:59:58.299Z,22.53
2023-05-01T10:00:58.210Z,22.53
2023-05-01T10:01:58.351Z,22.54
2023-05-01T10:02:58.299Z,22.54
2023-05-01T10:03:58.381Z,22.54
2023-05-01T10:04:58.355Z,22.54
2023-05-01T10:05:58.441Z,22.54
2023-05-01T10:06:58.465Z,22.54
2023-05-01T10:07:58.476Z,22.53
2023-05-01T10:08:58.514Z,22.54
2023-05-01T10:10:00.882Z,22.54
2023-05-01T10:10:58.573Z,22.53
2023-05-01T10:11:58.621Z,22.53
2023-05-01T10:12:58.566Z,22.54
2023-05-01T10:13:58.590Z,22.54
2023-05-01T10:14:58.538Z,22.54
2023-05-01T10:15:58.583Z,22.54
2023-05-01T10:16:58.556Z,22.54
2023-05-01T10:17:58.988Z,22.54
2023-05-01T10:18:58.514Z,22.54
2023-05-01T10:19:58.862Z,22.55
2023-05-01T10:20:58.523Z,22.55
2023-05-01T10:21:58.480Z,22.55
2023-05-01T10:22:58.491Z,22.55
2023-05-01T10:23:58.481Z,22.55
2023-05-01T10:24:58.470Z,22.55
2023-05-01T10:25:59.156Z,22.55
2023-05-01T10:26:58.481Z,22.54
2023-05-01T10:27:58.454Z,22.55
2023-05-01T10:28:58.462Z,22.55
2023-05-01T10:29:58.624Z,22.56
2023-05-01T10:30:58.493Z,22.55
2023-05-01T10:31:58.658Z,22.55
2023-05-01T10:32:58.476Z,22.56
2023-05-01T10:33:58.423Z,22.55
2023-05-01T10:34:58.590Z,22.55
2023-05-01T10:35:58.403Z,22.56
2023-05-01T10:36:58.393Z,22.55
2023-05-01T10:37:58.410Z,22.56
2023-05-01T10:38:58.382Z,22.56
2023-05-01T10:39:58.413Z,22.56
2023-05-01T10:40:58.414Z,22.55
2023-05-01T10:41:58.492Z,22.56
2023-05-01T10:42:58.508Z,22.56
2023-05-01T10:43:58.560Z,22.55
2023-05-01T10:44:58.736Z,22.56
2023-05-01T10:45:58.666Z,22.55
2023-05-01T10:46:58.742Z,22.55
2023-05-01T10:47:58.704Z,22.55
2023-05-01T10:48:58.745Z,22.54
2023-05-01T10:49:58.788Z,22.55
2023-05-01T10:50:58.822Z,22.55
2023-05-01T10:51:59.109Z,22.55
2023-05-01T10:52:58.928Z,22.55
2023-05-01T10:53:58.947Z,22.54
2023-05-01T10:54:59.015Z,22.55
2023-05-01T10:55:59.068Z,22.55
2023-05-01T10:56:59.076Z,22.55
2023-05-01T10:57:59.147Z,22.56
2023-05-01T10:58:59.165Z,22.55
2023-05-01T10:59:59.227Z,22.55
2023-05-01T11:00:59.253Z,22.55
2023-05-01T11:01:59.376Z,22.55
2023-05-01T11:02:59.375Z,22.55
2023-05-01T11:03:59.429Z,22.55
2023-05-01T11:04:59.736Z,22.56
2023-05-01T11:05:59.583Z,22.56
2023-05-01T11:06:59.610Z,22.56
2023-05-01T11:07:59.543Z,22.56
2023-05-01T11:08:59.585Z,22.56
2023-05-01T11:09:59.653Z,22.56
2023-05-01T11:10:59.657Z,22.58
2023-05-01T11:11:59.698Z,22.58
2023-05-01T11:12:59.759Z,22.59
2023-05-01T11:13:59.760Z,22.59
2023-05-01T11:14:59.933Z,22.60
2023-05-01T11:16:00.440Z,22.61
2023-05-01T11:16:59.864Z,22.62
2023-05-01T11:17:59.953Z,22.63
2023-05-01T11:18:59.945Z,22.62
2023-05-01T11:19:59.997Z,22.62
2023-05-01T11:21:00.036Z,22.63
2023-05-01T11:22:00.059Z,22.63
2023-05-01T11:23:00.094Z,22.62
2023-05-01T11:24:00.122Z,22.62
2023-05-01T11:25:00.163Z,22.63
2023-05-01T11:26:00.222Z,22.63
2023-05-01T11:27:00.230Z,22.62
2023-05-01T11:28:00.282Z,22.62
2023-05-01T11:29:00.334Z,22.62
2023-05-01T11:30:00.343Z,22.62
2023-05-01T11:31:00.383Z,22.62
2023-05-01T11:32:00.484Z,22.61
2023-05-01T11:33:00.494Z,22.61
2023-05-01T11:34:00.493Z,22.61
2023-05-01T11:35:00.632Z,22.60
2023-05-01T11:36:00.615Z,22.59
2023-05-01T11:37:00.622Z,22.60
2023-05-01T11:38:00.687Z,22.60
2023-05-01T11:39:00.710Z,22.59
2023-05-01T11:40:00.805Z,22.60
2023-05-01T11:41:00.838Z,22.58
2023-05-01T11:42:00.894Z,22.59
2023-05-01T11:43:00.929Z,22.59
2023-05-01T11:44:00.969Z,22.58
2023-05-01T11:45:00.985Z,22.58
2023-05-01T11:46:01.094Z,22.58
2023-05-01T11:47:01.061Z,22.57
2023-05-01T11:48:04.185Z,22.57
2023-05-01T11:49:01.080Z,22.56
2023-05-01T11:50:01.122Z,22.56
2023-05-01T11:51:01.060Z,22.56
2023-05-01T11:52:01.064Z,22.55
2023-05-01T11:53:01.097Z,22.55
2023-05-01T11:54:01.079Z,22.55
2023-05-01T11:55:01.239Z,22.54
2023-05-01T11:56:01.090Z,22.54
2023-05-01T11:57:01.161Z,22.55
2023-05-01T11:58:01.040Z,22.55
2023-05-01T11:59:01.006Z,22.56
2023-05-01T12:00:01.053Z,22.55
2023-05-01T12:01:01.000Z,22.56
2023-05-01T12:02:01.053Z,22.57
2023-05-01T12:03:01.300Z,22.56
2023-05-01T12:04:01.050Z,22.56
2023-05-01T12:05:01.359Z,22.57
2023-05-01T12:06:00.984Z,22.57
2023-05-01T12:07:00.956Z,22.57
2023-05-01T12:08:00.936Z,22.57
2023-05-01T12:09:00.963Z,22.57
2023-05-01T12:10:00.940Z,22.57
2023-05-01T12:11:00.929Z,22.57
2023-05-01T12:12:00.948Z,22.57
2023-05-01T12:13:00.974Z,22.58
2023-05-01T12:14:00.926Z,22.57
2023-05-01T12:15:00.970Z,22.58
2023-05-01T12:16:00.881Z,22.58
2023-05-01T12:17:00.943Z,22.58
2023-05-01T12:18:00.921Z,22.57
2023-05-01T12:19:00.879Z,22.58
2023-05-01T12:20:00.872Z,22.58
2023-05-01T12:21:00.861Z,22.59
2023-05-01T12:22:00.849Z,22.59
2023-05-01T12:23:00.848Z,22.60
2023-05-01T12:24:00.875Z,22.60
2023-05-01T12:25:00.913Z,22.59
2023-05-01T12:26:00.910Z,22.60
2023-05-01T12:27:00.924Z,22.60
2023-05-01T12:28:00.962Z,22.61
2023-05-01T12:29:00.999Z,22.62
2023-05-01T12:30:01.025Z,22.62
2023-05-01T12:31:02.106Z,22.61
2023-05-01T12:32:01.095Z,22.62
2023-05-01T12:33:01.167Z,22.62
2023-05-01T12:34:01.031Z,22.63
2023-05-01T12:35:01.278Z,22.64
2023-05-01T12:36:01.039Z,22.65
2023-05-01T12:37:01.381Z,22.66
2023-05-01T12:38:01.018Z,22.66
2023-05-01T12:39:01.020Z,22.67
2023-05-01T12:40:01.011Z,22.67
2023-05-01T12:41:00.971Z,22.68
2023-05-01T12:42:00.974Z,22.69
2023-05-01T12:43:00.988Z,22.69
2023-05-01T12:44:00.957Z,22.70
2023-05-01T12:45:01.149Z,22.70
2023-05-01T12:46:00.992Z,22.71
2023-05-01T12:47:01.312Z,22.72
2023-05-01T12:48:00.982Z,22.73
2023-05-01T12:49:00.919Z,22.74
2023-05-01T12:50:01.014Z,22.75
2023-05-01T12:51:00.926Z,22.76
2023-05-01T12:52:00.899Z,22.77
2023-05-01T12:53:00.907Z,22.77